Time;durP1;ratioP1;P1;durP2;ratioP2;P2;SDS_P1;SDS_P2;PMS_P1;PMS_P2;Temp;Humidity;BMP_temperature;BMP_pressure;BME280_temperature;BME280_humidity;BME280_pressure;Samples;Min_cycle;Max_cycle;Signal;HPM_P1;HPM_P2
2023/01/01 00:00:57;;;;;;;6.33;5.40;;;16.40;68.90;;;;;;965596;148;27324;-75
2023/01/01 00:03:24;;;;;;;8.48;5.90;;;16.30;68.70;;;;;;965903;148;27387;-76
2023/01/01 00:05:50;;;;;;;9.28;8.38;;;16.30;68.60;;;;;;961021;148;27333;-79
2023/01/01 00:08:17;;;;;;;12.20;10.90;;;16.20;68.60;;;;;;953946;149;27332;-75
2023/01/01 00:10:43;;;;;;;8.88;6.95;;;16.20;68.70;;;;;;954467;147;27335;-75
2023/01/01 00:13:10;;;;;;;6.17;5.40;;;16.10;68.70;;;;;;953299;150;27329;-75
2023/01/01 00:15:37;;;;;;;4.78;4.12;;;16.00;68.70;;;;;;953196;149;27281;-76
2023/01/01 00:18:03;;;;;;;4.60;4.20;;;15.90;68.80;;;;;;953666;149;27285;-79
2023/01/01 00:20:30;;;;;;;9.50;8.15;;;15.80;68.90;;;;;;954147;149;27840;-75
2023/01/01 00:22:56;;;;;;;6.85;5.45;;;15.70;69.10;;;;;;954367;150;27304;-74
2023/01/01 00:25:23;;;;;;;5.92;5.20;;;15.60;69.20;;;;;;954008;149;27262;-77
2023/01/01 00:27:50;;;;;;;7.22;6.28;;;15.50;69.30;;;;;;953878;150;27412;-75
2023/01/01 00:30:16;;;;;;;7.03;4.95;;;15.40;69.50;;;;;;954214;150;27410;-79
2023/01/01 00:32:44;;;;;;;6.20;5.47;;;15.30;69.60;;;;;;953515;149;27328;-75
2023/01/01 00:35:09;;;;;;;12.20;7.45;;;15.20;69.60;;;;;;953749;150;27741;-75
2023/01/01 00:37:36;;;;;;;26.30;23.18;;;15.10;69.80;;;;;;954857;149;27269;-75
2023/01/01 00:40:02;;;;;;;24.50;20.77;;;15.00;70.00;;;;;;954395;150;27447;-79
2023/01/01 00:42:29;;;;;;;84.80;66.23;;;14.90;70.10;;;;;;954689;149;27400;-75
2023/01/01 00:44:56;;;;;;;64.90;53.55;;;14.80;70.30;;;;;;954452;150;27405;-75
2023/01/01 00:47:22;;;;;;;35.50;29.98;;;14.70;70.50;;;;;;953992;150;27301;-75
2023/01/01 00:49:49;;;;;;;23.00;20.37;;;14.60;70.70;;;;;;954263;148;27443;-78
2023/01/01 00:52:15;;;;;;;20.37;16.95;;;14.50;70.90;;;;;;954578;150;27333;-76
2023/01/01 00:54:42;;;;;;;15.98;12.93;;;14.50;71.10;;;;;;952598;149;27362;-76
2023/01/01 00:57:09;;;;;;;13.00;11.00;;;14.40;71.30;;;;;;953022;149;27854;-74
2023/01/01 00:59:35;;;;;;;12.43;10.03;;;14.40;71.00;;;;;;953050;149;27296;-75
2023/01/01 01:02:02;;;;;;;11.65;10.00;;;14.30;71.60;;;;;;952461;150;27348;-77
2023/01/01 01:04:28;;;;;;;12.18;9.90;;;14.20;71.90;;;;;;953050;149;27329;-74
2023/01/01 01:06:55;;;;;;;9.68;7.67;;;14.20;72.30;;;;;;953449;149;27288;-74
2023/01/01 01:09:22;;;;;;;13.40;11.57;;;14.10;72.50;;;;;;953657;148;27333;-76
2023/01/01 01:11:48;;;;;;;13.80;10.37;;;14.00;72.70;;;;;;954347;148;27324;-76
2023/01/01 01:14:15;;;;;;;11.83;10.03;;;14.00;73.00;;;;;;954033;150;27328;-77
2023/01/01 01:16:41;;;;;;;14.87;13.28;;;14.00;73.20;;;;;;954017;149;27384;-74
2023/01/01 01:19:12;;;;;;;12.70;10.20;;;13.90;73.20;;;;;;953021;150;27370;-77
2023/01/01 01:21:35;;;;;;;11.87;9.70;;;13.90;73.30;;;;;;953575;147;27323;-77
2023/01/01 01:24:01;;;;;;;10.03;8.37;;;13.80;73.30;;;;;;953928;149;27313;-76
2023/01/01 01:26:28;;;;;;;10.73;9.40;;;13.70;73.50;;;;;;953676;150;27349;-77
2023/01/01 01:28:54;;;;;;;11.97;8.93;;;13.70;73.60;;;;;;952818;150;27327;-78
2023/01/01 01:31:21;;;;;;;32.83;22.17;;;13.60;73.70;;;;;;953963;150;27301;-77
2023/01/01 01:33:47;;;;;;;58.57;40.77;;;13.60;73.90;;;;;;952938;150;27460;-78
2023/01/01 01:36:14;;;;;;;18.02;15.50;;;13.50;74.10;;;;;;952455;150;27336;-78
2023/01/01 01:38:41;;;;;;;15.43;12.60;;;13.50;74.20;;;;;;953953;149;27334;-76
2023/01/01 01:41:07;;;;;;;11.37;9.40;;;13.40;74.50;;;;;;953876;150;27476;-77
2023/01/01 01:43:34;;;;;;;11.63;9.13;;;13.40;74.80;;;;;;954041;147;27369;-77
2023/01/01 01:46:03;;;;;;;10.10;8.30;;;13.30;75.00;;;;;;954247;150;27241;-78
2023/01/01 01:48:30;;;;;;;10.53;8.50;;;13.30;75.30;;;;;;952404;149;27360;-78
2023/01/01 01:50:56;;;;;;;10.78;8.20;;;13.30;75.60;;;;;;953244;149;27312;-76
2023/01/01 01:53:23;;;;;;;8.97;7.67;;;13.30;76.00;;;;;;952920;150;27394;-75
2023/01/01 01:55:58;;;;;;;15.17;12.10;;;13.40;76.40;;;;;;952770;150;27307;-75
2023/01/01 01:58:25;;;;;;;19.17;14.67;;;13.40;77.00;;;;;;952841;148;27339;-75
2023/01/01 02:00:52;;;;;;;13.97;11.13;;;13.50;77.10;;;;;;953093;149;28275;-76
2023/01/01 02:03:18;;;;;;;9.53;8.33;;;13.60;77.40;;;;;;953197;149;27344;-76
2023/01/01 02:05:45;;;;;;;11.77;8.63;;;13.60;77.50;;;;;;952554;150;27381;-76
2023/01/01 02:08:13;;;;;;;9.00;7.57;;;13.70;77.60;;;;;;936771;149;27918;-78
2023/01/01 02:10:38;;;;;;;9.18;7.75;;;13.80;77.70;;;;;;932853;149;27371;-77
2023/01/01 02:13:05;;;;;;;9.83;8.43;;;13.90;77.60;;;;;;933012;149;27360;-78
2023/01/01 02:15:31;;;;;;;8.77;7.87;;;14.00;77.50;;;;;;933572;149;27775;-77
2023/01/01 02:18:01;;;;;;;8.40;7.55;;;14.10;77.50;;;;;;932349;149;27432;-77
2023/01/01 02:20:33;;;;;;;9.75;8.73;;;14.10;77.50;;;;;;932408;149;27452;-77
2023/01/01 02:23:15;;;;;;;9.13;8.18;;;14.20;77.50;;;;;;932733;149;27367;-76
2023/01/01 02:26:09;;;;;;;10.32;8.93;;;14.20;77.40;;;;;;932291;149;27410;-76
2023/01/01 02:28:54;;;;;;;8.83;7.65;;;14.30;77.40;;;;;;932778;149;27357;-77
2023/01/01 02:31:26;;;;;;;9.55;8.53;;;14.30;77.30;;;;;;932511;149;27335;-76
2023/01/01 02:33:53;;;;;;;8.30;7.40;;;14.40;77.40;;;;;;932329;149;27390;-77
2023/01/01 02:36:19;;;;;;;7.92;7.10;;;14.40;77.50;;;;;;933123;149;27393;-76
2023/01/01 02:38:46;;;;;;;7.30;6.60;;;14.40;77.50;;;;;;933105;149;27278;-77
2023/01/01 02:41:12;;;;;;;7.53;5.55;;;14.40;77.50;;;;;;933071;149;27440;-78
2023/01/01 02:43:39;;;;;;;6.55;5.83;;;14.40;77.60;;;;;;933399;149;27394;-78
2023/01/01 02:46:06;;;;;;;5.95;4.70;;;14.50;77.80;;;;;;932783;149;27813;-77
2023/01/01 02:48:41;;;;;;;5.95;5.35;;;14.50;77.80;;;;;;932590;149;27429;-77
2023/01/01 02:51:14;;;;;;;5.58;5.00;;;14.60;78.00;;;;;;933515;149;27288;-77
2023/01/01 02:53:46;;;;;;;4.70;4.17;;;14.60;77.90;;;;;;933235;149;27787;-78
2023/01/01 02:56:15;;;;;;;5.37;4.62;;;14.60;77.90;;;;;;932953;149;27497;-78
2023/01/01 03:01:29;;;;;;;4.75;4.35;;;14.60;77.90;;;;;;934405;149;27806;-78
2023/01/01 03:04:05;;;;;;;5.47;4.62;;;14.70;78.00;;;;;;932923;149;27351;-78
2023/01/01 03:06:37;;;;;;;6.03;4.72;;;14.70;78.00;;;;;;934095;149;27461;-77
2023/01/01 03:09:25;;;;;;;8.15;6.50;;;14.70;78.00;;;;;;955418;147;27454;-77
2023/01/01 03:12:00;;;;;;;5.30;4.80;;;14.70;78.00;;;;;;961549;149;27404;-77
2023/01/01 03:14:36;;;;;;;6.03;5.15;;;14.80;78.00;;;;;;960944;149;27349;-78
2023/01/01 03:17:08;;;;;;;6.20;5.60;;;14.80;78.00;;;;;;960302;149;27412;-78
2023/01/01 03:19:36;;;;;;;6.42;5.40;;;14.80;77.90;;;;;;960593;149;27295;-78
2023/01/01 03:22:11;;;;;;;4.75;4.28;;;14.80;78.00;;;;;;960946;149;27882;-77
2023/01/01 03:24:46;;;;;;;16.85;5.45;;;14.80;78.20;;;;;;950440;149;27288;-76
2023/01/01 03:27:13;;;;;;;4.25;3.85;;;14.80;78.20;;;;;;961804;148;27341;-75
2023/01/01 03:29:39;;;;;;;7.40;4.00;;;14.80;78.20;;;;;;959465;149;27913;-75
2023/01/01 03:32:06;;;;;;;7.70;6.97;;;14.80;78.30;;;;;;961007;149;27262;-77
2023/01/01 03:34:32;;;;;;;8.58;7.30;;;14.90;78.30;;;;;;960574;149;27280;-77
2023/01/01 03:36:59;;;;;;;6.17;5.00;;;14.90;78.20;;;;;;937727;148;27420;-76
2023/01/01 03:39:32;;;;;;;7.90;6.30;;;14.90;78.20;;;;;;950384;148;27325;-76
2023/01/01 03:42:04;;;;;;;6.75;5.50;;;14.90;78.40;;;;;;950822;148;27321;-77
2023/01/01 03:44:33;;;;;;;5.45;4.40;;;15.00;78.40;;;;;;950719;148;27445;-77
2023/01/01 03:47:00;;;;;;;5.20;3.58;;;15.00;78.30;;;;;;954651;146;27400;-77
2023/01/01 03:49:27;;;;;;;5.42;3.80;;;15.00;78.50;;;;;;938122;148;27270;-77
2023/01/01 03:51:59;;;;;;;4.97;4.05;;;15.00;78.30;;;;;;951177;148;27400;-75
2023/01/01 03:54:44;;;;;;;3.83;3.50;;;15.10;78.40;;;;;;950950;148;27449;-76
2023/01/01 03:57:35;;;;;;;3.95;3.50;;;15.10;78.40;;;;;;953806;146;27420;-78
2023/01/01 04:00:04;;;;;;;8.18;5.03;;;15.20;78.20;;;;;;954371;146;27815;-77
2023/01/01 04:02:30;;;;;;;4.53;3.92;;;15.20;78.20;;;;;;949074;148;27353;-76
2023/01/01 04:04:57;;;;;;;4.87;4.22;;;15.20;78.10;;;;;;950235;148;27323;-76
2023/01/01 04:07:24;;;;;;;5.12;4.62;;;15.20;78.00;;;;;;950726;148;27441;-77
2023/01/01 04:09:50;;;;;;;6.60;4.53;;;15.20;77.90;;;;;;935816;148;27416;-76
2023/01/01 04:12:17;;;;;;;3.40;3.05;;;15.20;77.80;;;;;;948929;147;27354;-76
2023/01/01 04:14:43;;;;;;;3.70;3.40;;;15.20;77.80;;;;;;942624;149;27470;-76
2023/01/01 04:17:10;;;;;;;4.62;3.67;;;15.20;77.80;;;;;;943049;149;27286;-77
2023/01/01 04:19:37;;;;;;;3.60;3.30;;;15.20;77.70;;;;;;943200;149;27369;-77
2023/01/01 04:22:03;;;;;;;6.05;3.75;;;15.20;77.70;;;;;;943270;149;27329;-77
2023/01/01 04:24:30;;;;;;;4.08;3.67;;;15.20;77.60;;;;;;951180;147;27797;-77
2023/01/01 04:26:56;;;;;;;3.27;3.02;;;15.20;77.60;;;;;;942341;149;27365;-78
2023/01/01 04:29:23;;;;;;;8.05;5.55;;;15.20;77.60;;;;;;935011;150;27436;-78
2023/01/01 04:31:49;;;;;;;6.00;5.37;;;15.10;77.60;;;;;;935153;150;27369;-78
2023/01/01 04:34:16;;;;;;;7.67;5.25;;;15.10;77.60;;;;;;927394;150;27268;-79
2023/01/01 04:36:43;;;;;;;5.67;4.40;;;15.00;77.70;;;;;;943205;149;27378;-79
2023/01/01 04:39:09;;;;;;;4.50;4.05;;;15.00;77.70;;;;;;943494;149;27379;-79
2023/01/01 04:41:36;;;;;;;7.90;6.58;;;15.00;77.80;;;;;;950987;147;27456;-78
2023/01/01 04:44:02;;;;;;;5.12;4.60;;;15.00;77.80;;;;;;927016;150;27264;-77
2023/01/01 04:46:29;;;;;;;6.37;4.50;;;14.90;77.80;;;;;;943209;149;27399;-77
2023/01/01 04:48:56;;;;;;;6.12;3.87;;;14.90;77.90;;;;;;943249;149;27463;-78
2023/01/01 04:51:22;;;;;;;5.00;4.50;;;14.90;78.00;;;;;;951181;147;27413;-79
2023/01/01 04:53:49;;;;;;;6.22;4.33;;;14.90;78.10;;;;;;927393;150;27361;-77
2023/01/01 04:56:15;;;;;;;5.07;4.30;;;14.80;78.00;;;;;;935158;149;27993;-77
2023/01/01 04:58:42;;;;;;;5.60;4.67;;;14.80;78.10;;;;;;935661;149;27413;-77
2023/01/01 05:01:09;;;;;;;8.70;7.60;;;14.80;78.20;;;;;;931287;150;27311;-77
2023/01/01 05:03:35;;;;;;;6.00;4.85;;;14.80;78.90;;;;;;941939;149;27349;-78
2023/01/01 05:06:07;;;;;;;4.50;4.05;;;14.80;78.30;;;;;;943325;149;27373;-77
2023/01/01 05:08:34;;;;;;;5.28;3.80;;;14.70;78.50;;;;;;953598;146;27371;-78
2023/01/01 05:11:01;;;;;;;4.70;4.20;;;14.70;78.50;;;;;;943977;149;27367;-77
2023/01/01 05:13:27;;;;;;;5.85;4.33;;;14.70;78.50;;;;;;962585;149;27372;-77
2023/01/01 05:15:54;;;;;;;6.10;4.05;;;14.70;78.60;;;;;;963511;149;27693;-78
2023/01/01 05:18:20;;;;;;;6.10;4.22;;;14.80;78.70;;;;;;963791;148;28321;-78
2023/01/01 05:20:47;;;;;;;5.67;4.17;;;14.80;78.70;;;;;;962772;148;27364;-78
2023/01/01 05:23:16;;;;;;;5.65;3.58;;;14.80;78.70;;;;;;954636;148;27270;-76
2023/01/01 05:25:43;;;;;;;5.35;3.40;;;14.80;78.90;;;;;;947419;148;27380;-76
2023/01/01 05:28:09;;;;;;;6.47;3.35;;;14.80;78.70;;;;;;947562;148;27358;-77
2023/01/01 05:30:39;;;;;;;5.22;3.20;;;14.90;78.70;;;;;;944549;149;27381;-76
2023/01/01 05:33:05;;;;;;;3.62;2.98;;;14.90;78.70;;;;;;963946;146;27307;-77
2023/01/01 05:35:32;;;;;;;3.42;3.12;;;14.90;78.60;;;;;;955873;148;27362;-76
2023/01/01 05:37:59;;;;;;;4.12;3.25;;;14.90;78.60;;;;;;945661;149;27360;-76
2023/01/01 05:40:25;;;;;;;3.95;3.27;;;14.90;78.50;;;;;;948248;148;27397;-76
2023/01/01 05:42:51;;;;;;;4.65;3.05;;;14.90;78.40;;;;;;964562;146;27263;-76
2023/01/01 05:45:18;;;;;;;4.78;3.45;;;15.00;78.40;;;;;;946637;149;27336;-77
2023/01/01 05:47:45;;;;;;;3.90;3.30;;;15.00;78.40;;;;;;954571;147;27342;-78
2023/01/01 05:50:11;;;;;;;3.37;3.08;;;15.00;78.40;;;;;;945875;149;27337;-78
2023/01/01 05:52:38;;;;;;;5.85;3.05;;;15.00;78.30;;;;;;945492;149;27298;-77
2023/01/01 05:55:04;;;;;;;3.27;2.98;;;15.00;78.20;;;;;;955744;148;27244;-78
2023/01/01 05:57:31;;;;;;;3.50;3.05;;;15.00;78.20;;;;;;945414;149;27359;-76
2023/01/01 05:59:57;;;;;;;3.80;2.87;;;15.00;78.20;;;;;;965229;148;28012;-76
2023/01/01 06:02:24;;;;;;;3.10;2.80;;;15.00;78.10;;;;;;964603;148;27303;-75
2023/01/01 06:04:51;;;;;;;3.15;2.85;;;15.00;78.10;;;;;;964886;148;27429;-77
2023/01/01 06:07:17;;;;;;;3.15;2.67;;;14.90;77.90;;;;;;964864;148;27314;-76
2023/01/01 06:09:44;;;;;;;4.28;3.15;;;15.00;78.00;;;;;;959413;146;27476;-76
2023/01/01 06:12:11;;;;;;;4.08;2.95;;;14.90;78.00;;;;;;934034;150;27315;-76
2023/01/01 06:14:37;;;;;;;3.70;2.87;;;14.90;78.00;;;;;;934837;149;27299;-76
2023/01/01 06:17:04;;;;;;;3.95;2.65;;;14.90;78.00;;;;;;927452;150;27389;-76
2023/01/01 06:19:30;;;;;;;3.10;2.70;;;14.80;77.80;;;;;;939804;150;27380;-76
2023/01/01 06:21:57;;;;;;;3.40;2.70;;;14.80;77.80;;;;;;950172;146;27740;-75
2023/01/01 06:24:23;;;;;;;3.92;3.00;;;14.80;77.80;;;;;;934689;150;27477;-75
2023/01/01 06:26:50;;;;;;;3.15;2.72;;;14.70;77.80;;;;;;951574;147;27277;-75
2023/01/01 06:29:17;;;;;;;3.80;3.50;;;14.70;77.80;;;;;;927412;150;27410;-75
2023/01/01 06:31:43;;;;;;;3.47;2.60;;;14.70;77.10;;;;;;935704;149;27345;-74
2023/01/01 06:34:10;;;;;;;3.17;2.65;;;14.70;78.00;;;;;;950470;147;27407;-74
2023/01/01 06:36:36;;;;;;;4.30;2.60;;;14.70;77.50;;;;;;934432;150;27380;-75
2023/01/01 06:39:03;;;;;;;4.33;2.75;;;14.70;78.00;;;;;;940408;150;27233;-75
2023/01/01 06:41:30;;;;;;;3.20;2.65;;;14.70;78.00;;;;;;935476;149;27416;-76
2023/01/01 06:43:56;;;;;;;3.10;2.70;;;14.70;78.00;;;;;;935426;150;27365;-75
2023/01/01 06:46:29;;;;;;;2.50;2.30;;;14.70;78.00;;;;;;935553;149;27427;-74
2023/01/01 06:49:01;;;;;;;4.17;2.75;;;14.70;78.00;;;;;;950278;147;27250;-75
2023/01/01 06:51:28;;;;;;;3.02;2.33;;;14.70;78.00;;;;;;934609;150;27396;-76
2023/01/01 06:53:54;;;;;;;3.20;2.60;;;14.70;78.00;;;;;;942406;148;27361;-75
2023/01/01 06:56:21;;;;;;;4.65;2.60;;;14.70;78.00;;;;;;934407;150;27354;-75
2023/01/01 06:58:47;;;;;;;2.52;2.33;;;14.70;78.00;;;;;;935474;150;27408;-75
2023/01/01 07:01:17;;;;;;;2.95;2.30;;;14.70;77.90;;;;;;935429;150;27307;-76
2023/01/01 07:03:43;;;;;;;3.40;2.42;;;14.70;77.80;;;;;;941505;150;27362;-75
2023/01/01 07:06:10;;;;;;;3.67;2.22;;;14.70;77.80;;;;;;933758;150;27311;-75
2023/01/01 07:08:37;;;;;;;4.00;2.50;;;14.70;77.80;;;;;;935298;149;27445;-75
2023/01/01 07:11:03;;;;;;;2.70;2.50;;;14.80;77.80;;;;;;928004;150;27470;-75
2023/01/01 07:13:30;;;;;;;5.43;2.83;;;14.80;77.70;;;;;;946700;149;27286;-77
2023/01/01 07:15:56;;;;;;;3.95;2.42;;;14.80;77.70;;;;;;946748;149;27352;-76
2023/01/01 07:18:23;;;;;;;3.37;2.15;;;14.80;77.70;;;;;;946667;149;27337;-75
2023/01/01 07:20:53;;;;;;;3.12;2.35;;;14.80;77.50;;;;;;946969;149;27308;-75
2023/01/01 07:23:19;;;;;;;3.27;2.17;;;14.90;77.60;;;;;;946267;149;27392;-74
2023/01/01 07:25:46;;;;;;;3.42;2.00;;;14.90;77.60;;;;;;946669;149;27345;-74
2023/01/01 07:28:12;;;;;;;2.12;1.92;;;14.90;77.50;;;;;;946276;149;27361;-74
2023/01/01 07:30:39;;;;;;;5.53;2.20;;;14.90;77.50;;;;;;946274;149;27289;-75
2023/01/01 07:33:06;;;;;;;2.58;2.37;;;14.90;77.30;;;;;;946260;149;27363;-75
2023/01/01 07:35:32;;;;;;;2.80;2.15;;;15.00;77.40;;;;;;946545;149;27313;-76
2023/01/01 07:37:59;;;;;;;3.70;2.10;;;15.00;77.40;;;;;;946494;148;27381;-76
2023/01/01 07:40:25;;;;;;;4.17;2.37;;;15.10;77.30;;;;;;946341;151;27361;-76
2023/01/01 07:42:52;;;;;;;2.83;2.08;;;15.10;77.20;;;;;;946697;149;27324;-76
2023/01/01 07:45:18;;;;;;;3.52;2.10;;;15.20;77.20;;;;;;946678;149;27275;-76
2023/01/01 07:47:45;;;;;;;4.12;2.08;;;15.20;77.00;;;;;;946334;148;27321;-76
2023/01/01 07:50:15;;;;;;;2.47;1.75;;;15.20;77.00;;;;;;946459;149;27357;-76
2023/01/01 07:52:41;;;;;;;2.33;2.00;;;15.30;76.80;;;;;;945924;149;27316;-75
2023/01/01 07:55:08;;;;;;;1.77;1.60;;;15.30;76.70;;;;;;946818;149;27326;-76
2023/01/01 07:57:34;;;;;;;4.90;2.37;;;15.40;76.70;;;;;;945600;149;27303;-76
2023/01/01 08:00:01;;;;;;;3.67;2.12;;;15.40;76.60;;;;;;946896;149;27478;-76
2023/01/01 08:02:28;;;;;;;4.72;2.10;;;15.50;76.60;;;;;;946428;149;27798;-76
2023/01/01 08:04:54;;;;;;;7.00;2.55;;;15.50;77.30;;;;;;945435;149;27398;-76
2023/01/01 08:07:21;;;;;;;3.87;1.87;;;15.60;76.40;;;;;;946533;149;27271;-75
2023/01/01 08:09:47;;;;;;;4.25;1.95;;;15.60;76.30;;;;;;946694;149;27407;-76
2023/01/01 08:12:14;;;;;;;1.95;1.67;;;15.70;76.20;;;;;;945140;149;27389;-76
2023/01/01 08:14:41;;;;;;;2.83;2.30;;;15.80;76.20;;;;;;940264;150;28511;-77
2023/01/01 08:17:07;;;;;;;1.72;1.52;;;15.90;76.10;;;;;;939641;150;27307;-77
2023/01/01 08:19:34;;;;;;;2.90;1.85;;;16.00;76.00;;;;;;955567;148;27873;-77
2023/01/01 08:22:00;;;;;;;2.20;2.00;;;16.10;75.90;;;;;;943389;150;27367;-77
2023/01/01 08:24:27;;;;;;;3.75;2.00;;;16.20;75.60;;;;;;937699;153;27370;-77
2023/01/01 08:26:53;;;;;;;3.02;1.70;;;16.30;75.40;;;;;;955544;150;27315;-77
2023/01/01 08:29:20;;;;;;;4.00;2.33;;;16.40;75.20;;;;;;955166;148;27293;-76
2023/01/01 08:31:47;;;;;;;4.17;2.00;;;16.40;74.80;;;;;;954789;150;27366;-76
2023/01/01 08:34:13;;;;;;;1.98;1.67;;;16.50;74.70;;;;;;944337;150;27342;-76
2023/01/01 08:36:40;;;;;;;2.55;1.77;;;16.50;74.50;;;;;;937866;151;27276;-76
2023/01/01 08:39:06;;;;;;;3.15;1.70;;;16.60;74.30;;;;;;937925;153;27400;-75
2023/01/01 08:41:33;;;;;;;2.37;1.72;;;16.60;74.30;;;;;;939097;151;27334;-76
2023/01/01 08:44:00;;;;;;;1.80;1.70;;;16.60;74.00;;;;;;939008;152;27364;-78
2023/01/01 08:46:26;;;;;;;3.62;1.75;;;16.70;74.00;;;;;;953783;148;27371;-76
2023/01/01 08:48:53;;;;;;;2.30;1.55;;;16.70;73.80;;;;;;936650;151;27349;-76
2023/01/01 08:51:19;;;;;;;1.72;1.57;;;16.70;73.50;;;;;;948077;150;27307;-76
2023/01/01 08:53:46;;;;;;;2.75;1.57;;;16.80;73.50;;;;;;938006;151;27364;-77
2023/01/01 08:56:14;;;;;;;2.50;1.72;;;16.80;73.40;;;;;;954226;148;27868;-76
2023/01/01 08:58:39;;;;;;;2.62;1.67;;;16.80;73.40;;;;;;953663;150;27292;-76
2023/01/01 09:01:06;;;;;;;4.97;1.72;;;16.80;73.20;;;;;;940920;152;27395;-77
2023/01/01 09:03:32;;;;;;;3.62;1.70;;;16.90;73.40;;;;;;953855;148;27349;-78
2023/01/01 09:05:59;;;;;;;2.80;1.70;;;16.90;73.30;;;;;;954355;149;27350;-75
2023/01/01 09:08:25;;;;;;;2.87;1.98;;;17.00;73.50;;;;;;929294;151;27402;-74
2023/01/01 09:10:52;;;;;;;1.95;1.72;;;17.00;73.40;;;;;;939785;151;27318;-74
2023/01/01 09:13:19;;;;;;;4.42;2.30;;;17.10;73.40;;;;;;954995;148;27333;-74
2023/01/01 09:15:45;;;;;;;3.85;2.37;;;17.20;73.20;;;;;;954706;148;27308;-74
2023/01/01 09:18:12;;;;;;;3.17;2.12;;;17.20;72.90;;;;;;956830;148;27467;-76
2023/01/01 09:20:38;;;;;;;3.83;2.42;;;17.30;72.90;;;;;;945362;148;27344;-76
2023/01/01 09:23:05;;;;;;;2.60;2.37;;;17.40;73.80;;;;;;946820;148;27278;-76
2023/01/01 09:25:32;;;;;;;2.47;2.22;;;17.50;73.00;;;;;;942700;149;27459;-77
2023/01/01 09:27:58;;;;;;;4.90;1.95;;;17.60;72.70;;;;;;955337;148;27534;-79
2023/01/01 09:30:25;;;;;;;4.22;2.05;;;17.70;72.70;;;;;;953600;147;27323;-76
2023/01/01 09:32:51;;;;;;;3.58;1.87;;;17.90;72.70;;;;;;965957;145;27314;-77
2023/01/01 09:35:18;;;;;;;1.92;1.70;;;18.00;72.40;;;;;;958009;147;27318;-76
2023/01/01 09:37:45;;;;;;;3.62;2.00;;;18.10;72.10;;;;;;955185;148;27359;-79
2023/01/01 09:40:32;;;;;;;3.83;1.90;;;18.20;71.80;;;;;;947848;148;27359;-79
2023/01/01 09:43:17;;;;;;;2.52;1.87;;;18.30;71.60;;;;;;942682;149;27503;-76
2023/01/01 09:45:49;;;;;;;3.22;1.60;;;18.40;71.40;;;;;;963801;146;27365;-75
2023/01/01 09:48:16;;;;;;;3.15;1.70;;;18.40;71.20;;;;;;957166;147;27292;-77
2023/01/01 09:50:42;;;;;;;2.65;1.57;;;18.50;71.00;;;;;;956474;148;27375;-75
2023/01/01 09:53:18;;;;;;;2.72;1.87;;;18.60;70.70;;;;;;944171;149;27364;-75
2023/01/01 09:55:44;;;;;;;3.45;2.42;;;18.70;70.30;;;;;;962166;149;27357;-76
2023/01/01 09:58:11;;;;;;;4.00;2.17;;;18.70;70.30;;;;;;963350;146;27318;-76
2023/01/01 10:00:37;;;;;;;2.67;1.50;;;18.80;70.10;;;;;;946885;148;27372;-75
2023/01/01 10:03:10;;;;;;;2.75;1.85;;;18.90;69.30;;;;;;943607;149;27314;-75
2023/01/01 10:05:45;;;;;;;3.83;1.82;;;18.90;69.70;;;;;;961156;146;27307;-75
2023/01/01 10:08:33;;;;;;;4.95;1.70;;;19.00;69.50;;;;;;947364;148;27342;-76
2023/01/01 10:11:24;;;;;;;5.53;1.85;;;19.00;69.10;;;;;;941826;149;27393;-76
2023/01/01 10:13:51;;;;;;;1.35;1.25;;;19.00;68.90;;;;;;934744;151;27528;-75
2023/01/01 10:16:26;;;;;;;4.22;2.75;;;19.10;69.00;;;;;;936667;149;27326;-76
2023/01/01 10:18:53;;;;;;;2.50;1.70;;;19.10;68.90;;;;;;943210;149;27418;-76
2023/01/01 10:21:19;;;;;;;2.85;1.67;;;19.20;68.70;;;;;;943496;149;27398;-75
2023/01/01 10:23:51;;;;;;;3.12;1.72;;;19.20;68.50;;;;;;955617;148;27349;-78
2023/01/01 10:26:19;;;;;;;3.45;1.70;;;19.30;68.50;;;;;;947565;148;27338;-74
2023/01/01 10:29:03;;;;;;;4.60;1.70;;;19.30;67.80;;;;;;946877;149;27319;-76
2023/01/01 10:31:35;;;;;;;3.77;1.70;;;19.30;67.30;;;;;;941263;149;27336;-76
2023/01/01 10:34:20;;;;;;;4.40;2.00;;;19.30;67.10;;;;;;947100;148;27350;-75
2023/01/01 10:36:46;;;;;;;2.58;1.60;;;19.30;67.00;;;;;;946051;148;28267;-75
2023/01/01 10:39:15;;;;;;;2.08;1.60;;;19.30;66.60;;;;;;946947;148;27405;-76
2023/01/01 10:41:42;;;;;;;2.08;1.70;;;19.30;66.80;;;;;;954133;147;27235;-76
2023/01/01 10:44:09;;;;;;;2.50;1.27;;;19.40;67.10;;;;;;947132;148;27365;-79
2023/01/01 10:46:35;;;;;;;4.03;1.98;;;19.40;67.00;;;;;;955555;148;28366;-76
2023/01/01 10:49:10;;;;;;;3.40;1.52;;;19.40;66.00;;;;;;966878;145;27302;-75
2023/01/01 10:51:34;;;;;;;2.80;1.80;;;19.50;66.90;;;;;;952964;148;27297;-76
2023/01/01 10:54:01;;;;;;;2.33;1.90;;;19.50;66.80;;;;;;943048;149;27345;-78
2023/01/01 10:56:28;;;;;;;2.47;1.77;;;19.60;66.40;;;;;;962952;148;27328;-76
2023/01/01 10:58:54;;;;;;;3.80;1.90;;;19.70;65.90;;;;;;961538;149;27391;-76
2023/01/01 11:01:27;;;;;;;3.60;1.80;;;19.70;65.70;;;;;;963421;146;27295;-75
2023/01/01 11:04:08;;;;;;;6.78;3.50;;;19.70;65.70;;;;;;954804;148;27753;-77
2023/01/01 11:06:38;;;;;;;3.25;1.90;;;19.70;65.70;;;;;;945145;149;27484;-76
2023/01/01 11:09:23;;;;;;;3.52;1.98;;;19.70;65.60;;;;;;963833;146;27436;-76
2023/01/01 11:11:58;;;;;;;3.20;1.47;;;19.60;64.90;;;;;;944004;149;27437;-76
2023/01/01 11:14:28;;;;;;;2.98;1.67;;;19.60;65.20;;;;;;939965;148;27444;-74
2023/01/01 11:16:54;;;;;;;2.20;1.87;;;19.50;65.20;;;;;;934872;150;27924;-74
2023/01/01 11:19:21;;;;;;;3.58;1.85;;;19.50;65.10;;;;;;927840;150;27372;-74
2023/01/01 11:21:48;;;;;;;4.75;1.50;;;19.50;65.00;;;;;;935471;149;27906;-74
2023/01/01 11:24:20;;;;;;;4.40;1.50;;;19.40;65.30;;;;;;931612;149;27321;-74
2023/01/01 11:26:47;;;;;;;2.37;1.92;;;19.40;65.40;;;;;;943147;148;27366;-76
2023/01/01 11:29:16;;;;;;;2.70;1.85;;;19.40;65.40;;;;;;943596;149;27388;-76
2023/01/01 11:31:43;;;;;;;3.00;1.70;;;19.50;65.80;;;;;;942132;149;27421;-73
2023/01/01 11:34:37;;;;;;;4.00;1.90;;;19.50;65.80;;;;;;943023;149;27262;-75
2023/01/01 11:37:25;;;;;;;5.25;1.92;;;19.60;65.50;;;;;;943084;149;27291;-75
2023/01/01 11:39:53;;;;;;;2.45;1.62;;;19.70;65.70;;;;;;949469;147;27317;-75
2023/01/01 11:42:18;;;;;;;5.67;1.87;;;19.70;65.50;;;;;;932699;149;27553;-77
2023/01/01 11:44:45;;;;;;;3.40;1.50;;;19.80;64.40;;;;;;941455;149;27471;-75
2023/01/01 11:47:29;;;;;;;2.47;1.72;;;19.80;64.80;;;;;;933881;150;27362;-75
2023/01/01 11:49:56;;;;;;;5.50;1.92;;;19.80;64.90;;;;;;933580;150;27276;-75
2023/01/01 11:52:25;;;;;;;2.47;1.60;;;19.90;64.80;;;;;;941541;149;27286;-75
2023/01/01 11:54:52;;;;;;;5.85;2.17;;;19.90;64.70;;;;;;942536;148;27448;-78
2023/01/01 11:57:18;;;;;;;2.02;1.30;;;19.90;64.60;;;;;;946634;148;27945;-75
2023/01/01 11:59:45;;;;;;;2.50;1.60;;;19.90;64.40;;;;;;945878;149;27399;-75
2023/01/01 12:02:12;;;;;;;3.87;1.65;;;19.90;64.30;;;;;;945835;148;27277;-77
2023/01/01 12:04:47;;;;;;;2.67;1.72;;;20.00;64.10;;;;;;945177;149;27317;-76
2023/01/01 12:07:14;;;;;;;3.00;1.67;;;20.00;63.90;;;;;;945465;149;27373;-74
2023/01/01 12:09:56;;;;;;;1.65;1.55;;;20.00;63.90;;;;;;945561;149;27410;-75
2023/01/01 12:12:28;;;;;;;4.00;2.05;;;20.00;63.60;;;;;;944946;149;27277;-74
2023/01/01 12:15:03;;;;;;;2.85;1.75;;;19.90;63.60;;;;;;945609;149;27302;-76
2023/01/01 12:17:57;;;;;;;3.20;1.50;;;19.90;63.40;;;;;;945095;149;27945;-74
2023/01/01 12:20:45;;;;;;;2.60;1.50;;;19.80;63.40;;;;;;946158;149;27431;-76
2023/01/01 12:23:11;;;;;;;4.50;1.90;;;19.80;63.40;;;;;;939204;149;27298;-74
2023/01/01 12:25:41;;;;;;;4.70;1.85;;;19.80;63.30;;;;;;945995;149;27321;-77
2023/01/01 12:28:19;;;;;;;3.22;1.67;;;19.70;63.50;;;;;;945951;149;27454;-74
2023/01/01 12:30:58;;;;;;;2.35;2.08;;;19.70;63.40;;;;;;944477;148;27380;-75
2023/01/01 12:33:36;;;;;;;2.85;2.20;;;19.60;63.60;;;;;;946462;148;27341;-75
2023/01/01 12:36:11;;;;;;;2.45;1.52;;;19.60;63.50;;;;;;945519;149;27356;-74
2023/01/01 12:39:01;;;;;;;3.20;1.47;;;19.60;63.50;;;;;;882642;158;27351;-75
2023/01/01 12:41:49;;;;;;;2.52;1.60;;;19.60;63.70;;;;;;946089;149;27337;-75
2023/01/01 12:44:28;;;;;;;3.90;1.70;;;19.60;63.80;;;;;;944556;149;27318;-75
2023/01/01 12:47:16;;;;;;;6.08;2.20;;;19.50;63.80;;;;;;946514;149;27446;-75
2023/01/01 12:49:49;;;;;;;4.97;2.83;;;19.50;63.60;;;;;;943674;149;27385;-75
2023/01/01 12:52:40;;;;;;;5.10;3.58;;;19.50;63.80;;;;;;945700;149;27354;-75
2023/01/01 12:55:24;;;;;;;3.02;2.70;;;19.50;63.80;;;;;;945980;149;27348;-74
2023/01/01 12:57:53;;;;;;;2.50;2.05;;;19.50;64.10;;;;;;929505;149;27317;-75